sensor_id;sensor_type;location;lat;lon;timestamp;temperature;humidity
46085;DHT22;31823;47.032;8.310;2024-03-22T00:00:15;7.30;99.90
46085;DHT22;31823;47.032;8.310;2024-03-22T00:02:40;7.30;99.90
46085;DHT22;31823;47.032;8.310;2024-03-22T00:05:06;7.30;99.90
46085;DHT22;31823;47.032;8.310;2024-03-22T00:07:31;7.30;99.90
46085;DHT22;31823;47.032;8.310;2024-03-22T00:09:57;7.30;99.90
46085;DHT22;31823;47.032;8.310;2024-03-22T00:12:23;7.40;99.90
46085;DHT22;31823;47.032;8.310;2024-03-22T00:14:49;7.30;99.90
46085;DHT22;31823;47.032;8.310;2024-03-22T00:17:16;7.30;99.90
46085;DHT22;31823;47.032;8.310;2024-03-22T00:19:42;7.30;99.90
46085;DHT22;31823;47.032;8.310;2024-03-22T00:22:07;7.30;99.90
46085;DHT22;31823;47.032;8.310;2024-03-22T00:24:33;7.20;99.90
46085;DHT22;31823;47.032;8.310;2024-03-22T00:26:58;7.20;99.90
46085;DHT22;31823;47.032;8.310;2024-03-22T00:29:24;7.20;99.90
46085;DHT22;31823;47.032;8.310;2024-03-22T00:31:51;7.10;99.90
46085;DHT22;31823;47.032;8.310;2024-03-22T00:34:17;7.10;99.90
46085;DHT22;31823;47.032;8.310;2024-03-22T00:36:42;7.10;99.90
46085;DHT22;31823;47.032;8.310;2024-03-22T00:39:08;7.10;99.90
46085;DHT22;31823;47.032;8.310;2024-03-22T00:41:34;7.20;99.90
46085;DHT22;31823;47.032;8.310;2024-03-22T00:43:59;7.20;99.90
46085;DHT22;31823;47.032;8.310;2024-03-22T00:46:25;7.20;99.90
46085;DHT22;31823;47.032;8.310;2024-03-22T00:48:50;7.20;99.90
46085;DHT22;31823;47.032;8.310;2024-03-22T00:51:16;7.10;99.90
46085;DHT22;31823;47.032;8.310;2024-03-22T00:53:41;7.20;99.90
46085;DHT22;31823;47.032;8.310;2024-03-22T00:56:07;7.20;99.90
46085;DHT22;31823;47.032;8.310;2024-03-22T00:58:32;7.30;99.90
46085;DHT22;31823;47.032;8.310;2024-03-22T01:00:58;7.20;99.90
46085;DHT22;31823;47.032;8.310;2024-03-22T01:03:24;7.20;99.90
46085;DHT22;31823;47.032;8.310;2024-03-22T01:05:49;7.20;99.90
46085;DHT22;31823;47.032;8.310;2024-03-22T01:08:15;7.10;99.90
46085;DHT22;31823;47.032;8.310;2024-03-22T01:10:41;7.10;99.90
46085;DHT22;31823;47.032;8.310;2024-03-22T01:13:07;7.10;99.90
46085;DHT22;31823;47.032;8.310;2024-03-22T01:15:33;7.10;99.90
46085;DHT22;31823;47.032;8.310;2024-03-22T01:17:58;7.00;99.90
46085;DHT22;31823;47.032;8.310;2024-03-22T01:20:24;7.00;99.90
46085;DHT22;31823;47.032;8.310;2024-03-22T01:22:49;7.00;99.90
46085;DHT22;31823;47.032;8.310;2024-03-22T01:25:15;7.00;99.90
46085;DHT22;31823;47.032;8.310;2024-03-22T01:27:41;6.90;99.90
46085;DHT22;31823;47.032;8.310;2024-03-22T01:30:06;6.90;99.90
46085;DHT22;31823;47.032;8.310;2024-03-22T01:32:33;6.90;99.90
46085;DHT22;31823;47.032;8.310;2024-03-22T01:34:58;6.90;99.90
46085;DHT22;31823;47.032;8.310;2024-03-22T01:37:24;6.80;99.90
46085;DHT22;31823;47.032;8.310;2024-03-22T01:39:50;6.80;99.90
46085;DHT22;31823;47.032;8.310;2024-03-22T01:42:15;6.80;99.90
46085;DHT22;31823;47.032;8.310;2024-03-22T01:44:41;6.80;99.90
46085;DHT22;31823;47.032;8.310;2024-03-22T01:47:07;6.80;99.90
46085;DHT22;31823;47.032;8.310;2024-03-22T01:49:33;6.80;99.90
46085;DHT22;31823;47.032;8.310;2024-03-22T01:51:58;6.80;99.90
46085;DHT22;31823;47.032;8.310;2024-03-22T01:54:24;6.80;99.90
46085;DHT22;31823;47.032;8.310;2024-03-22T01:56:49;6.70;99.90
46085;DHT22;31823;47.032;8.310;2024-03-22T01:59:15;6.70;99.90
46085;DHT22;31823;47.032;8.310;2024-03-22T02:01:42;6.60;99.90
46085;DHT22;31823;47.032;8.310;2024-03-22T02:04:08;6.60;99.90
46085;DHT22;31823;47.032;8.310;2024-03-22T02:06:33;6.60;99.90
46085;DHT22;31823;47.032;8.310;2024-03-22T02:09:00;6.60;99.90
46085;DHT22;31823;47.032;8.310;2024-03-22T02:11:26;6.60;99.90
46085;DHT22;31823;47.032;8.310;2024-03-22T02:13:52;6.70;99.90
46085;DHT22;31823;47.032;8.310;2024-03-22T02:16:17;6.70;99.90
46085;DHT22;31823;47.032;8.310;2024-03-22T02:18:43;6.70;99.90
46085;DHT22;31823;47.032;8.310;2024-03-22T02:21:10;6.80;99.90
46085;DHT22;31823;47.032;8.310;2024-03-22T02:23:37;6.90;99.90
46085;DHT22;31823;47.032;8.310;2024-03-22T02:26:04;7.00;99.90
46085;DHT22;31823;47.032;8.310;2024-03-22T02:28:31;7.10;99.90
46085;DHT22;31823;47.032;8.310;2024-03-22T02:30:57;7.10;99.90
46085;DHT22;31823;47.032;8.310;2024-03-22T02:33:23;7.20;99.90
46085;DHT22;31823;47.032;8.310;2024-03-22T02:35:50;7.20;99.90
46085;DHT22;31823;47.032;8.310;2024-03-22T02:38:16;7.20;99.90
46085;DHT22;31823;47.032;8.310;2024-03-22T02:40:43;7.20;99.90
46085;DHT22;31823;47.032;8.310;2024-03-22T02:43:09;7.20;99.90
46085;DHT22;31823;47.032;8.310;2024-03-22T02:45:34;7.20;99.90
46085;DHT22;31823;47.032;8.310;2024-03-22T02:48:00;7.20;99.90
46085;DHT22;31823;47.032;8.310;2024-03-22T02:50:26;7.30;99.90
46085;DHT22;31823;47.032;8.310;2024-03-22T02:52:51;7.20;99.90
46085;DHT22;31823;47.032;8.310;2024-03-22T02:55:17;7.20;99.90
46085;DHT22;31823;47.032;8.310;2024-03-22T02:57:43;7.20;99.90
46085;DHT22;31823;47.032;8.310;2024-03-22T03:00:09;7.20;99.90
46085;DHT22;31823;47.032;8.310;2024-03-22T03:02:35;7.30;99.90
46085;DHT22;31823;47.032;8.310;2024-03-22T03:05:01;7.20;99.90
46085;DHT22;31823;47.032;8.310;2024-03-22T03:07:27;7.20;99.90
46085;DHT22;31823;47.032;8.310;2024-03-22T03:09:55;7.20;99.90
46085;DHT22;31823;47.032;8.310;2024-03-22T03:12:21;7.20;99.90
46085;DHT22;31823;47.032;8.310;2024-03-22T03:14:46;7.20;99.90
46085;DHT22;31823;47.032;8.310;2024-03-22T03:17:12;7.20;99.90
46085;DHT22;31823;47.032;8.310;2024-03-22T03:19:38;7.10;99.90
46085;DHT22;31823;47.032;8.310;2024-03-22T03:22:03;7.00;99.90
46085;DHT22;31823;47.032;8.310;2024-03-22T03:24:29;6.80;99.90
46085;DHT22;31823;47.032;8.310;2024-03-22T03:26:55;6.90;99.90
46085;DHT22;31823;47.032;8.310;2024-03-22T03:29:20;6.80;99.90
46085;DHT22;31823;47.032;8.310;2024-03-22T03:31:46;6.80;99.90
46085;DHT22;31823;47.032;8.310;2024-03-22T03:34:11;6.70;99.90
46085;DHT22;31823;47.032;8.310;2024-03-22T03:36:37;6.70;99.90
46085;DHT22;31823;47.032;8.310;2024-03-22T03:39:03;6.60;99.90
46085;DHT22;31823;47.032;8.310;2024-03-22T03:41:29;6.50;99.90
46085;DHT22;31823;47.032;8.310;2024-03-22T03:43:55;6.50;99.90
46085;DHT22;31823;47.032;8.310;2024-03-22T03:46:20;6.40;99.90
46085;DHT22;31823;47.032;8.310;2024-03-22T03:48:46;6.40;99.90
46085;DHT22;31823;47.032;8.310;2024-03-22T03:51:11;6.30;99.90
46085;DHT22;31823;47.032;8.310;2024-03-22T03:53:37;6.30;99.90
46085;DHT22;31823;47.032;8.310;2024-03-22T03:56:03;6.30;99.90
46085;DHT22;31823;47.032;8.310;2024-03-22T03:58:28;6.30;99.90
46085;DHT22;31823;47.032;8.310;2024-03-22T04:00:54;6.30;99.90
46085;DHT22;31823;47.032;8.310;2024-03-22T04:03:19;6.30;99.90
46085;DHT22;31823;47.032;8.310;2024-03-22T04:05:45;6.30;99.90
46085;DHT22;31823;47.032;8.310;2024-03-22T04:08:11;6.20;99.90
46085;DHT22;31823;47.032;8.310;2024-03-22T04:10:36;6.20;99.90
46085;DHT22;31823;47.032;8.310;2024-03-22T04:13:02;6.20;99.90
46085;DHT22;31823;47.032;8.310;2024-03-22T04:15:28;6.20;99.90
46085;DHT22;31823;47.032;8.310;2024-03-22T04:17:56;6.20;99.90
46085;DHT22;31823;47.032;8.310;2024-03-22T04:20:21;6.30;99.90
46085;DHT22;31823;47.032;8.310;2024-03-22T04:22:47;6.30;99.90
46085;DHT22;31823;47.032;8.310;2024-03-22T04:25:15;6.40;99.90
46085;DHT22;31823;47.032;8.310;2024-03-22T04:27:40;6.50;99.90
46085;DHT22;31823;47.032;8.310;2024-03-22T04:30:06;6.50;99.90
46085;DHT22;31823;47.032;8.310;2024-03-22T04:32:32;6.50;99.90
46085;DHT22;31823;47.032;8.310;2024-03-22T04:34:57;6.50;99.90
46085;DHT22;31823;47.032;8.310;2024-03-22T04:37:23;6.60;99.90
46085;DHT22;31823;47.032;8.310;2024-03-22T04:39:49;6.60;99.90
46085;DHT22;31823;47.032;8.310;2024-03-22T04:42:14;6.60;99.90
46085;DHT22;31823;47.032;8.310;2024-03-22T04:44:41;6.70;99.90
46085;DHT22;31823;47.032;8.310;2024-03-22T04:47:07;6.70;99.90
46085;DHT22;31823;47.032;8.310;2024-03-22T04:49:32;6.70;99.90
46085;DHT22;31823;47.032;8.310;2024-03-22T04:51:58;6.80;99.90
46085;DHT22;31823;47.032;8.310;2024-03-22T04:54:23;6.80;99.90
46085;DHT22;31823;47.032;8.310;2024-03-22T04:56:50;6.90;99.90
46085;DHT22;31823;47.032;8.310;2024-03-22T04:59:15;6.90;99.90
46085;DHT22;31823;47.032;8.310;2024-03-22T05:01:41;6.90;99.90
46085;DHT22;31823;47.032;8.310;2024-03-22T05:04:07;6.90;99.90
46085;DHT22;31823;47.032;8.310;2024-03-22T05:06:32;7.00;99.90
46085;DHT22;31823;47.032;8.310;2024-03-22T05:08:58;7.00;99.90
46085;DHT22;31823;47.032;8.310;2024-03-22T05:11:23;6.90;99.90
46085;DHT22;31823;47.032;8.310;2024-03-22T05:13:49;7.00;99.90
46085;DHT22;31823;47.032;8.310;2024-03-22T05:16:15;7.10;99.90
46085;DHT22;31823;47.032;8.310;2024-03-22T05:18:40;7.10;99.90
46085;DHT22;31823;47.032;8.310;2024-03-22T05:21:06;7.10;99.90
46085;DHT22;31823;47.032;8.310;2024-03-22T05:23:32;7.10;99.90
46085;DHT22;31823;47.032;8.310;2024-03-22T05:25:57;7.00;99.90
46085;DHT22;31823;47.032;8.310;2024-03-22T05:28:25;7.00;99.90
46085;DHT22;31823;47.032;8.310;2024-03-22T05:30:50;7.00;99.90
46085;DHT22;31823;47.032;8.310;2024-03-22T05:33:16;6.90;99.90
46085;DHT22;31823;47.032;8.310;2024-03-22T05:35:42;6.90;99.90
46085;DHT22;31823;47.032;8.310;2024-03-22T05:38:07;6.90;99.90
46085;DHT22;31823;47.032;8.310;2024-03-22T05:40:36;6.90;99.90
46085;DHT22;31823;47.032;8.310;2024-03-22T05:43:01;6.90;99.90
46085;DHT22;31823;47.032;8.310;2024-03-22T05:45:27;6.90;99.90
46085;DHT22;31823;47.032;8.310;2024-03-22T05:47:53;7.00;99.90
46085;DHT22;31823;47.032;8.310;2024-03-22T05:50:18;7.00;99.90
46085;DHT22;31823;47.032;8.310;2024-03-22T05:52:45;7.00;99.90
46085;DHT22;31823;47.032;8.310;2024-03-22T05:55:11;7.10;99.90
46085;DHT22;31823;47.032;8.310;2024-03-22T05:57:37;7.10;99.90
46085;DHT22;31823;47.032;8.310;2024-03-22T06:00:02;7.20;99.90
46085;DHT22;31823;47.032;8.310;2024-03-22T06:02:28;7.20;99.90
46085;DHT22;31823;47.032;8.310;2024-03-22T06:04:54;7.20;99.90
46085;DHT22;31823;47.032;8.310;2024-03-22T06:07:19;7.30;99.90
46085;DHT22;31823;47.032;8.310;2024-03-22T06:09:45;7.40;99.90
46085;DHT22;31823;47.032;8.310;2024-03-22T06:12:15;7.40;99.90
46085;DHT22;31823;47.032;8.310;2024-03-22T06:14:41;7.40;99.90
46085;DHT22;31823;47.032;8.310;2024-03-22T06:17:08;7.50;99.90
46085;DHT22;31823;47.032;8.310;2024-03-22T06:19:35;7.50;99.90
46085;DHT22;31823;47.032;8.310;2024-03-22T06:22:00;7.70;99.90
46085;DHT22;31823;47.032;8.310;2024-03-22T06:24:27;7.60;99.90
46085;DHT22;31823;47.032;8.310;2024-03-22T06:26:52;7.70;99.90
46085;DHT22;31823;47.032;8.310;2024-03-22T06:29:18;7.80;99.90
46085;DHT22;31823;47.032;8.310;2024-03-22T06:31:43;7.80;99.90
46085;DHT22;31823;47.032;8.310;2024-03-22T06:34:09;7.70;99.90
46085;DHT22;31823;47.032;8.310;2024-03-22T06:36:35;7.80;99.90
46085;DHT22;31823;47.032;8.310;2024-03-22T06:39:00;7.90;99.90
46085;DHT22;31823;47.032;8.310;2024-03-22T06:41:28;8.00;99.90
46085;DHT22;31823;47.032;8.310;2024-03-22T06:43:54;8.10;99.90
46085;DHT22;31823;47.032;8.310;2024-03-22T06:46:19;8.10;99.90
46085;DHT22;31823;47.032;8.310;2024-03-22T06:48:45;8.20;99.90
46085;DHT22;31823;47.032;8.310;2024-03-22T06:51:12;8.30;99.90
46085;DHT22;31823;47.032;8.310;2024-03-22T06:53:37;8.40;99.90
46085;DHT22;31823;47.032;8.310;2024-03-22T06:56:04;8.40;99.90
46085;DHT22;31823;47.032;8.310;2024-03-22T06:58:29;8.60;99.90
46085;DHT22;31823;47.032;8.310;2024-03-22T07:00:55;8.70;99.90
46085;DHT22;31823;47.032;8.310;2024-03-22T07:03:21;8.80;99.90
46085;DHT22;31823;47.032;8.310;2024-03-22T07:05:49;8.90;99.90
46085;DHT22;31823;47.032;8.310;2024-03-22T07:08:15;8.90;99.90
46085;DHT22;31823;47.032;8.310;2024-03-22T07:10:41;9.10;99.90
46085;DHT22;31823;47.032;8.310;2024-03-22T07:13:07;9.20;99.90
46085;DHT22;31823;47.032;8.310;2024-03-22T07:15:33;9.40;99.90
46085;DHT22;31823;47.032;8.310;2024-03-22T07:17:59;9.40;99.90
46085;DHT22;31823;47.032;8.310;2024-03-22T07:20:25;9.40;99.90
46085;DHT22;31823;47.032;8.310;2024-03-22T07:22:51;9.50;99.90
46085;DHT22;31823;47.032;8.310;2024-03-22T07:25:17;9.60;99.90
46085;DHT22;31823;47.032;8.310;2024-03-22T07:27:43;9.60;99.90
46085;DHT22;31823;47.032;8.310;2024-03-22T07:30:08;9.70;99.90
46085;DHT22;31823;47.032;8.310;2024-03-22T07:32:35;9.80;99.90
46085;DHT22;31823;47.032;8.310;2024-03-22T07:35:03;9.90;99.90
46085;DHT22;31823;47.032;8.310;2024-03-22T07:37:28;10.10;99.90
46085;DHT22;31823;47.032;8.310;2024-03-22T07:39:54;10.20;99.90
46085;DHT22;31823;47.032;8.310;2024-03-22T07:42:20;10.40;99.90
46085;DHT22;31823;47.032;8.310;2024-03-22T07:44:46;10.60;99.90
46085;DHT22;31823;47.032;8.310;2024-03-22T07:47:12;10.70;99.90
46085;DHT22;31823;47.032;8.310;2024-03-22T07:49:38;10.80;99.90
46085;DHT22;31823;47.032;8.310;2024-03-22T07:52:03;10.90;99.90
46085;DHT22;31823;47.032;8.310;2024-03-22T07:54:30;10.90;99.90
46085;DHT22;31823;47.032;8.310;2024-03-22T07:56:56;11.10;99.90
46085;DHT22;31823;47.032;8.310;2024-03-22T07:59:21;11.20;99.90
46085;DHT22;31823;47.032;8.310;2024-03-22T08:01:47;11.30;99.90
46085;DHT22;31823;47.032;8.310;2024-03-22T08:04:13;11.40;99.90
46085;DHT22;31823;47.032;8.310;2024-03-22T08:06:39;11.60;99.90
46085;DHT22;31823;47.032;8.310;2024-03-22T08:09:04;11.80;99.90
46085;DHT22;31823;47.032;8.310;2024-03-22T08:11:30;12.00;99.90
46085;DHT22;31823;47.032;8.310;2024-03-22T08:13:56;12.10;99.90
46085;DHT22;31823;47.032;8.310;2024-03-22T08:16:28;12.20;99.90
46085;DHT22;31823;47.032;8.310;2024-03-22T08:18:53;12.50;99.90
46085;DHT22;31823;47.032;8.310;2024-03-22T08:21:19;12.50;99.90
46085;DHT22;31823;47.032;8.310;2024-03-22T08:23:45;12.80;99.90
46085;DHT22;31823;47.032;8.310;2024-03-22T08:26:10;13.10;99.90
46085;DHT22;31823;47.032;8.310;2024-03-22T08:28:36;13.60;99.90
46085;DHT22;31823;47.032;8.310;2024-03-22T08:31:05;13.60;99.90
46085;DHT22;31823;47.032;8.310;2024-03-22T08:33:30;14.00;99.90
46085;DHT22;31823;47.032;8.310;2024-03-22T08:35:56;14.50;99.90
46085;DHT22;31823;47.032;8.310;2024-03-22T08:38:22;14.90;99.90
46085;DHT22;31823;47.032;8.310;2024-03-22T08:40:47;14.70;99.90
46085;DHT22;31823;47.032;8.310;2024-03-22T08:43:13;14.70;99.90
46085;DHT22;31823;47.032;8.310;2024-03-22T08:45:39;15.10;99.90
46085;DHT22;31823;47.032;8.310;2024-03-22T08:48:05;14.90;99.90
46085;DHT22;31823;47.032;8.310;2024-03-22T08:50:30;15.00;99.90
46085;DHT22;31823;47.032;8.310;2024-03-22T08:52:56;14.50;99.90
46085;DHT22;31823;47.032;8.310;2024-03-22T08:55:22;14.40;99.90
46085;DHT22;31823;47.032;8.310;2024-03-22T08:57:47;14.60;99.90
46085;DHT22;31823;47.032;8.310;2024-03-22T09:00:14;14.70;99.90
46085;DHT22;31823;47.032;8.310;2024-03-22T09:02:39;14.60;99.90
46085;DHT22;31823;47.032;8.310;2024-03-22T09:05:06;15.00;99.90
46085;DHT22;31823;47.032;8.310;2024-03-22T09:07:31;14.90;99.90
46085;DHT22;31823;47.032;8.310;2024-03-22T09:09:57;15.00;99.90
46085;DHT22;31823;47.032;8.310;2024-03-22T09:12:23;15.10;99.90
46085;DHT22;31823;47.032;8.310;2024-03-22T09:14:48;15.10;99.90
46085;DHT22;31823;47.032;8.310;2024-03-22T09:17:14;15.50;99.90
46085;DHT22;31823;47.032;8.310;2024-03-22T09:19:40;15.50;99.90
46085;DHT22;31823;47.032;8.310;2024-03-22T09:22:05;15.90;99.90
46085;DHT22;31823;47.032;8.310;2024-03-22T09:24:31;15.90;99.90
46085;DHT22;31823;47.032;8.310;2024-03-22T09:26:57;15.50;99.90
46085;DHT22;31823;47.032;8.310;2024-03-22T09:29:24;16.00;99.90
46085;DHT22;31823;47.032;8.310;2024-03-22T09:31:49;16.30;99.90
46085;DHT22;31823;47.032;8.310;2024-03-22T09:34:16;15.70;99.80
46085;DHT22;31823;47.032;8.310;2024-03-22T09:36:42;16.20;99.90
46085;DHT22;31823;47.032;8.310;2024-03-22T09:39:07;16.40;99.90
46085;DHT22;31823;47.032;8.310;2024-03-22T09:41:43;16.30;98.50
46085;DHT22;31823;47.032;8.310;2024-03-22T09:44:13;16.20;99.40
46085;DHT22;31823;47.032;8.310;2024-03-22T09:46:42;16.30;98.60
46085;DHT22;31823;47.032;8.310;2024-03-22T09:49:10;16.40;99.80
46085;DHT22;31823;47.032;8.310;2024-03-22T09:51:37;16.20;99.80
46085;DHT22;31823;47.032;8.310;2024-03-22T09:54:03;16.40;99.00
46085;DHT22;31823;47.032;8.310;2024-03-22T09:56:30;16.20;97.30
46085;DHT22;31823;47.032;8.310;2024-03-22T09:58:57;16.30;98.70
46085;DHT22;31823;47.032;8.310;2024-03-22T10:01:24;16.80;99.20
46085;DHT22;31823;47.032;8.310;2024-03-22T10:03:51;17.10;98.00
46085;DHT22;31823;47.032;8.310;2024-03-22T10:06:17;17.70;97.30
46085;DHT22;31823;47.032;8.310;2024-03-22T10:08:44;18.00;98.70
46085;DHT22;31823;47.032;8.310;2024-03-22T10:11:10;18.10;95.40
46085;DHT22;31823;47.032;8.310;2024-03-22T10:13:36;18.50;95.70
46085;DHT22;31823;47.032;8.310;2024-03-22T10:16:02;19.00;95.70
46085;DHT22;31823;47.032;8.310;2024-03-22T10:18:27;18.50;93.50
46085;DHT22;31823;47.032;8.310;2024-03-22T10:21:04;19.00;96.30
46085;DHT22;31823;47.032;8.310;2024-03-22T10:23:30;19.20;94.60
46085;DHT22;31823;47.032;8.310;2024-03-22T10:25:57;19.50;94.90
46085;DHT22;31823;47.032;8.310;2024-03-22T10:28:24;19.40;93.00
46085;DHT22;31823;47.032;8.310;2024-03-22T10:30:52;19.40;94.40
46085;DHT22;31823;47.032;8.310;2024-03-22T10:33:21;19.40;94.50
46085;DHT22;31823;47.032;8.310;2024-03-22T10:35:52;19.20;94.70
46085;DHT22;31823;47.032;8.310;2024-03-22T10:38:19;19.00;93.60
46085;DHT22;31823;47.032;8.310;2024-03-22T10:40:46;19.40;92.00
46085;DHT22;31823;47.032;8.310;2024-03-22T10:43:13;18.90;95.70
46085;DHT22;31823;47.032;8.310;2024-03-22T10:45:39;18.30;95.60
46085;DHT22;31823;47.032;8.310;2024-03-22T10:48:09;18.80;95.20
46085;DHT22;31823;47.032;8.310;2024-03-22T10:50:35;19.30;95.10
46085;DHT22;31823;47.032;8.310;2024-03-22T10:53:09;19.90;94.50
46085;DHT22;31823;47.032;8.310;2024-03-22T10:55:46;20.00;93.70
46085;DHT22;31823;47.032;8.310;2024-03-22T10:58:21;20.00;92.80
46085;DHT22;31823;47.032;8.310;2024-03-22T11:00:47;20.40;92.80
46085;DHT22;31823;47.032;8.310;2024-03-22T11:03:16;20.30;93.10
46085;DHT22;31823;47.032;8.310;2024-03-22T11:05:54;20.60;92.10
46085;DHT22;31823;47.032;8.310;2024-03-22T11:08:25;20.40;90.80
46085;DHT22;31823;47.032;8.310;2024-03-22T11:10:51;20.90;90.10
46085;DHT22;31823;47.032;8.310;2024-03-22T11:13:17;21.00;90.80
46085;DHT22;31823;47.032;8.310;2024-03-22T11:15:43;20.70;91.70
46085;DHT22;31823;47.032;8.310;2024-03-22T11:18:09;21.30;91.40
46085;DHT22;31823;47.032;8.310;2024-03-22T11:20:37;21.10;89.10
46085;DHT22;31823;47.032;8.310;2024-03-22T11:23:07;21.40;91.30
46085;DHT22;31823;47.032;8.310;2024-03-22T11:25:33;20.90;90.10
46085;DHT22;31823;47.032;8.310;2024-03-22T11:27:59;20.80;90.10
46085;DHT22;31823;47.032;8.310;2024-03-22T11:30:27;20.20;92.10
46085;DHT22;31823;47.032;8.310;2024-03-22T11:32:54;19.80;92.40
46085;DHT22;31823;47.032;8.310;2024-03-22T11:35:19;20.30;93.30
46085;DHT22;31823;47.032;8.310;2024-03-22T11:37:45;20.20;92.00
46085;DHT22;31823;47.032;8.310;2024-03-22T11:40:11;20.50;90.40
46085;DHT22;31823;47.032;8.310;2024-03-22T11:42:41;20.80;92.00
46085;DHT22;31823;47.032;8.310;2024-03-22T11:45:10;20.60;90.50
46085;DHT22;31823;47.032;8.310;2024-03-22T11:47:36;21.30;90.90
46085;DHT22;31823;47.032;8.310;2024-03-22T11:50:02;21.20;88.20
46085;DHT22;31823;47.032;8.310;2024-03-22T11:52:31;20.30;90.20
46085;DHT22;31823;47.032;8.310;2024-03-22T11:54:57;20.10;90.50
46085;DHT22;31823;47.032;8.310;2024-03-22T11:57:23;20.10;90.20
46085;DHT22;31823;47.032;8.310;2024-03-22T11:59:50;20.00;91.10
46085;DHT22;31823;47.032;8.310;2024-03-22T12:02:16;20.10;90.60
46085;DHT22;31823;47.032;8.310;2024-03-22T12:04:46;19.90;89.20
46085;DHT22;31823;47.032;8.310;2024-03-22T12:07:13;19.60;87.40
46085;DHT22;31823;47.032;8.310;2024-03-22T12:09:39;19.10;90.10
46085;DHT22;31823;47.032;8.310;2024-03-22T12:12:07;19.20;90.40
46085;DHT22;31823;47.032;8.310;2024-03-22T12:14:34;18.90;91.10
46085;DHT22;31823;47.032;8.310;2024-03-22T12:17:00;18.80;91.50
46085;DHT22;31823;47.032;8.310;2024-03-22T12:19:25;18.80;90.20
46085;DHT22;31823;47.032;8.310;2024-03-22T12:21:51;19.00;91.10
46085;DHT22;31823;47.032;8.310;2024-03-22T12:24:17;19.20;88.50
46085;DHT22;31823;47.032;8.310;2024-03-22T12:26:42;19.20;90.00
46085;DHT22;31823;47.032;8.310;2024-03-22T12:29:08;19.40;88.00
46085;DHT22;31823;47.032;8.310;2024-03-22T12:31:37;18.90;88.40
46085;DHT22;31823;47.032;8.310;2024-03-22T12:34:03;18.70;88.30
46085;DHT22;31823;47.032;8.310;2024-03-22T12:36:28;19.30;88.60
46085;DHT22;31823;47.032;8.310;2024-03-22T12:38:54;19.40;86.80
46085;DHT22;31823;47.032;8.310;2024-03-22T12:41:19;19.30;85.30
46085;DHT22;31823;47.032;8.310;2024-03-22T12:43:45;19.20;87.80
46085;DHT22;31823;47.032;8.310;2024-03-22T12:46:11;19.40;84.90
46085;DHT22;31823;47.032;8.310;2024-03-22T12:48:36;19.20;87.30
46085;DHT22;31823;47.032;8.310;2024-03-22T12:51:02;19.50;87.60
46085;DHT22;31823;47.032;8.310;2024-03-22T12:53:28;19.80;82.70
46085;DHT22;31823;47.032;8.310;2024-03-22T12:55:53;19.80;85.20
46085;DHT22;31823;47.032;8.310;2024-03-22T12:58:19;19.90;84.20
46085;DHT22;31823;47.032;8.310;2024-03-22T13:00:45;20.10;84.50
46085;DHT22;31823;47.032;8.310;2024-03-22T13:03:10;21.00;85.90
46085;DHT22;31823;47.032;8.310;2024-03-22T13:05:37;21.10;81.10
46085;DHT22;31823;47.032;8.310;2024-03-22T13:08:03;21.00;86.70
46085;DHT22;31823;47.032;8.310;2024-03-22T13:10:28;21.80;83.50
46085;DHT22;31823;47.032;8.310;2024-03-22T13:12:54;21.80;84.20
46085;DHT22;31823;47.032;8.310;2024-03-22T13:15:19;22.50;83.70
46085;DHT22;31823;47.032;8.310;2024-03-22T13:17:45;22.50;80.90
46085;DHT22;31823;47.032;8.310;2024-03-22T13:20:11;21.80;79.10
46085;DHT22;31823;47.032;8.310;2024-03-22T13:22:40;21.90;80.60
46085;DHT22;31823;47.032;8.310;2024-03-22T13:25:06;21.80;86.40
46085;DHT22;31823;47.032;8.310;2024-03-22T13:27:35;21.20;85.60
46085;DHT22;31823;47.032;8.310;2024-03-22T13:30:03;22.40;83.00
46085;DHT22;31823;47.032;8.310;2024-03-22T13:32:30;22.10;82.20
46085;DHT22;31823;47.032;8.310;2024-03-22T13:34:56;22.40;83.50
46085;DHT22;31823;47.032;8.310;2024-03-22T13:37:22;22.60;85.20
46085;DHT22;31823;47.032;8.310;2024-03-22T13:39:49;22.00;81.80
46085;DHT22;31823;47.032;8.310;2024-03-22T13:42:15;21.70;82.80
46085;DHT22;31823;47.032;8.310;2024-03-22T13:44:41;22.50;81.80
46085;DHT22;31823;47.032;8.310;2024-03-22T13:47:07;22.60;77.70
46085;DHT22;31823;47.032;8.310;2024-03-22T13:49:32;22.80;80.40
46085;DHT22;31823;47.032;8.310;2024-03-22T13:51:58;23.10;77.00
46085;DHT22;31823;47.032;8.310;2024-03-22T13:54:24;22.70;76.80
46085;DHT22;31823;47.032;8.310;2024-03-22T13:56:50;22.70;78.60
46085;DHT22;31823;47.032;8.310;2024-03-22T13:59:15;22.70;78.20
46085;DHT22;31823;47.032;8.310;2024-03-22T14:01:42;22.90;80.10
46085;DHT22;31823;47.032;8.310;2024-03-22T14:04:11;23.00;79.10
46085;DHT22;31823;47.032;8.310;2024-03-22T14:06:37;22.30;77.10
46085;DHT22;31823;47.032;8.310;2024-03-22T14:09:03;22.50;77.60
46085;DHT22;31823;47.032;8.310;2024-03-22T14:11:30;21.60;76.40
46085;DHT22;31823;47.032;8.310;2024-03-22T14:13:59;22.10;77.50
46085;DHT22;31823;47.032;8.310;2024-03-22T14:16:25;22.10;75.70
46085;DHT22;31823;47.032;8.310;2024-03-22T14:18:51;21.70;77.30
46085;DHT22;31823;47.032;8.310;2024-03-22T14:21:18;21.90;76.80
46085;DHT22;31823;47.032;8.310;2024-03-22T14:23:50;21.50;76.70
46085;DHT22;31823;47.032;8.310;2024-03-22T14:26:17;21.30;77.40
46085;DHT22;31823;47.032;8.310;2024-03-22T14:28:43;22.00;81.30
46085;DHT22;31823;47.032;8.310;2024-03-22T14:31:10;21.90;75.80
46085;DHT22;31823;47.032;8.310;2024-03-22T14:33:39;21.50;80.40
46085;DHT22;31823;47.032;8.310;2024-03-22T14:36:06;22.20;78.80
46085;DHT22;31823;47.032;8.310;2024-03-22T14:38:32;22.30;76.60
46085;DHT22;31823;47.032;8.310;2024-03-22T14:40:58;21.80;77.70
46085;DHT22;31823;47.032;8.310;2024-03-22T14:43:25;21.40;77.60
46085;DHT22;31823;47.032;8.310;2024-03-22T14:45:54;21.10;77.90
46085;DHT22;31823;47.032;8.310;2024-03-22T14:48:20;21.00;78.40
46085;DHT22;31823;47.032;8.310;2024-03-22T14:50:47;21.00;79.80
46085;DHT22;31823;47.032;8.310;2024-03-22T14:53:13;20.70;78.70
46085;DHT22;31823;47.032;8.310;2024-03-22T14:55:39;20.90;79.60
46085;DHT22;31823;47.032;8.310;2024-03-22T14:58:06;20.80;78.70
46085;DHT22;31823;47.032;8.310;2024-03-22T15:00:32;20.70;79.80
46085;DHT22;31823;47.032;8.310;2024-03-22T15:02:57;20.50;80.30
46085;DHT22;31823;47.032;8.310;2024-03-22T15:05:23;20.40;78.80
46085;DHT22;31823;47.032;8.310;2024-03-22T15:07:49;20.20;80.50
46085;DHT22;31823;47.032;8.310;2024-03-22T15:10:14;20.30;81.70
46085;DHT22;31823;47.032;8.310;2024-03-22T15:12:40;20.20;80.50
46085;DHT22;31823;47.032;8.310;2024-03-22T15:15:06;20.10;81.60
46085;DHT22;31823;47.032;8.310;2024-03-22T15:17:33;20.50;83.30
46085;DHT22;31823;47.032;8.310;2024-03-22T15:19:59;20.70;83.20
46085;DHT22;31823;47.032;8.310;2024-03-22T15:22:25;20.80;80.50
46085;DHT22;31823;47.032;8.310;2024-03-22T15:24:51;20.80;78.80
46085;DHT22;31823;47.032;8.310;2024-03-22T15:27:17;20.40;80.00
46085;DHT22;31823;47.032;8.310;2024-03-22T15:29:43;20.20;79.70